Details From KSAN - San Diego Intl
To KNZY - San Diego North Island NAS
Flight Number -
Tags generated
Created
Modified
Stats Distance 9 nm / 16 km
Max Altitude 1,000 ft / 305 m
Waypoints 3
Social Downloads 1
Likes 0
Share VATSIM

Download

Looking for another format? Having issues loading an existing format? Contact us
Advertisement - Login to hide

Notes

Basic altitude profile: - Ascent Rate: 2500ft/min - Ascent Speed: 250kts - Cruise Altitude: 250000ft - Cruise Speed: 420kts - Descent Rate: 1500ft/min - Descent Speed: 250kts

Route

KSAN MZB KNZY

ID Type Via Altitude Latitude Longitude Leg Dist Tot Dist Heading (true) Name
O KSAN APT - 0 ft / 0 m 32.73356˚ -117.18966˚ - 0 nm - San Diego Intl
MZB DME - 1,000 ft / 305 m 32.78220˚ -117.22541˚ 3 nm 3 nm 328° / 328° MISSION BAY VORTAC
O KNZY APT - 0 ft / 0 m 32.69815˚ -117.21304˚ 5 nm 8 nm 173° / 173° San Diego North Island NAS

Altitude Profile

Advertisement - Login to hide

KSAN

Details ICAO KSAN (SAN)
Name San Diego Intl
Region United States
Timezone America/Los_Angeles (UTC-7.0)
Stats Elevation 17 ft / 5 m (AMSL)
Location 32.733556° -117.189658°
Runways 1
Magnetic Variation 11.487° E

METAR

KSAN 261151Z 30004KT 10SM FEW025 SCT040 16/12 A3003 RMK AO2 SLP169 T01560117 10172 20156 56014

Decode

TAF

TAF KSAN 261120Z 2612/2718 VRB04KT P6SM SCT025 SCT040 FM261900 28011KT P6SM SCT025 FM270300 30005KT P6SM BKN020

Decode

Departure Runways

ID Width Length Bearing (true) Bearing (mag) Surface Threshold Offset Overrun Length
09 200 ft / 61 m 9,387 ft / 2,861 m 106.07° 94.58° Asphalt 699 ft / 213 m 269 ft / 82 m
27 200 ft / 61 m 9,387 ft / 2,861 m 286.08° 274.59° Asphalt 1,811 ft / 552 m 0 ft / 0 m

KNZY

Details ICAO KNZY (NZY)
Name San Diego North Island NAS
Region United States
Timezone America/Los_Angeles (UTC-7.0)
Stats Elevation 26 ft / 8 m (AMSL)
Location 32.698154° -117.213036°
Runways 2
Magnetic Variation 11.485° E

METAR

KNZY 261152Z AUTO 29008KT 10SM CLR 16/12 A3001 RMK AO2 SLP162 60000 T01560117 10167 20156 56014

Decode

TAF

Not found

Destination Runways

ID Width Length Bearing (true) Bearing (mag) Surface Threshold Offset Overrun Length
11 300 ft / 91 m 7,497 ft / 2,285 m 122.10° 110.61° Asphalt 0 ft / 0 m 200 ft / 61 m
18 200 ft / 61 m 8,021 ft / 2,445 m 195.39° 183.90° Asphalt 0 ft / 0 m 600 ft / 183 m
29 300 ft / 91 m 7,497 ft / 2,285 m 302.12° 290.63° Asphalt 0 ft / 0 m 0 ft / 0 m
36 200 ft / 61 m 8,021 ft / 2,445 m 15.39° 3.90° Asphalt 0 ft / 0 m 600 ft / 183 m

Popular Alternatives